PWSweather.com
Personal Weather Stations
Station Observations
CANDIOTINO
Barrio Candioti Norte, Santa FeAR 3000

Barrio Candioti NorteSanta FeAR 3000

Lat: -31.632778, Lon: -60.695556

Elevation: 69

Station Type: WH-1081

http://www.eltiempoensantafe.com.ar

Latest ConditionsUpdated 8:15:02 PM GMT-03:57 Tuesday, Mar 26, 2019
Currently Today's Max Today's Min Today's Average
Temperature 68.5°F20.3°C 79.5°F26.4°C 59.4°F15.2°C 68.0°F20.0°C
Dew Point 55.9°F13.3°C 56.9°F13.8°C 48.5°F9.2°C 51.0°F10.6°C
Winds 1.6 mph S2.6 kmh S 8.3 mph -13.4 kmh - - 3.4 mph 5.5 kmh
Wind Gusts 6.9 mph11.1 kmh 14.5 mph23.3 kmh - -
Humidity 64% 71% 36% 56%
Pressure 30.11 in1019.6 mb 30.14 in1020.7 mb 30.04 in1017.3 mb -
Hour Temp Dew Point Humidity Winds Wind Gusts Pressure Precip Precip Rate Daily Precip Total
08:15 PM 68.5°F20.3°C 55.9°F13.3°C 64% 1.6 mph S2.6 kmh S 6.9 mph11.1 kmh 30.11 in1019.6 mb 0.00 in0.0 mm 0.00 in0.0 mm 0.00 in0.0 mm
08:00 PM 69.3°F20.7°C 56.6°F13.7°C 64% 2.2 mph S3.5 kmh S 4.5 mph7.2 kmh 30.10 in1019.3 mb 0.00 in0.0 mm 0.00 in0.0 mm 0.00 in0.0 mm
07:45 PM 69.6°F20.9°C 56.9°F13.8°C 64% 0.7 mph S1.1 kmh S 3.8 mph6.1 kmh 30.10 in1019.3 mb 0.00 in0.0 mm 0.00 in0.0 mm 0.00 in0.0 mm
07:30 PM 70.7°F21.5°C 54.7°F12.6°C 57% Calm Calm 3.8 mph6.1 kmh 30.09 in1019.0 mb 0.00 in0.0 mm 0.00 in0.0 mm 0.00 in0.0 mm
07:15 PM 71.6°F22.0°C 50.9°F10.5°C 48% 2.2 mph SE3.5 kmh SE 4.5 mph7.2 kmh 30.09 in1019.0 mb 0.00 in0.0 mm 0.00 in0.0 mm 0.00 in0.0 mm
07:00 PM 72.7°F22.6°C 50.7°F10.4°C 46% 0.7 mph SE1.1 kmh SE 3.1 mph5.0 kmh 30.08 in1018.6 mb 0.00 in0.0 mm 0.00 in0.0 mm 0.00 in0.0 mm
06:45 PM 75.6°F24.2°C 52.1°F11.2°C 44% 2.2 mph SE3.5 kmh SE 6.0 mph9.7 kmh 30.08 in1018.6 mb 0.00 in0.0 mm 0.00 in0.0 mm 0.00 in0.0 mm
06:30 PM 76.5°F24.7°C 51.7°F10.9°C 42% 2.2 mph SE3.5 kmh SE 7.6 mph12.2 kmh 30.07 in1018.3 mb 0.00 in0.0 mm 0.00 in0.0 mm 0.00 in0.0 mm
06:15 PM 75.9°F24.4°C 51.2°F10.7°C 42% 5.4 mph SE8.7 kmh SE 11.4 mph18.3 kmh 30.07 in1018.3 mb 0.00 in0.0 mm 0.00 in0.0 mm 0.00 in0.0 mm
06:00 PM 75.9°F24.4°C 51.2°F10.7°C 42% 1.6 mph SSE2.6 kmh SSE 10.7 mph17.2 kmh 30.07 in1018.3 mb 0.00 in0.0 mm 0.00 in0.0 mm 0.00 in0.0 mm
05:45 PM 78.6°F25.9°C 50.9°F10.5°C 38% 1.6 mph SE2.6 kmh SE 7.6 mph12.2 kmh 30.07 in1018.3 mb 0.00 in0.0 mm 0.00 in0.0 mm 0.00 in0.0 mm
05:30 PM 78.6°F25.9°C 50.9°F10.5°C 38% 3.1 mph SE5.0 kmh SE 9.2 mph14.8 kmh 30.07 in1018.3 mb 0.00 in0.0 mm 0.00 in0.0 mm 0.00 in0.0 mm
05:15 PM 77.5°F25.3°C 50.0°F10.0°C 38% 5.4 mph SSE8.7 kmh SSE 13.6 mph21.9 kmh 30.07 in1018.3 mb 0.00 in0.0 mm 0.00 in0.0 mm 0.00 in0.0 mm
05:00 PM 77.0°F25.0°C 50.9°F10.5°C 40% 4.5 mph SSE7.2 kmh SSE 10.7 mph17.2 kmh 30.06 in1017.9 mb 0.00 in0.0 mm 0.00 in0.0 mm 0.00 in0.0 mm
04:45 PM 78.6°F25.9°C 50.2°F10.1°C 37% 5.4 mph SE8.7 kmh SE 9.2 mph14.8 kmh 30.07 in1018.3 mb 0.00 in0.0 mm 0.00 in0.0 mm 0.00 in0.0 mm
04:15 PM 74.1°F23.4°C 51.5°F10.8°C 45% 1.6 mph SE2.6 kmh SE 10.7 mph17.2 kmh 30.07 in1018.3 mb 0.00 in0.0 mm 0.00 in0.0 mm 0.00 in0.0 mm
04:00 PM 78.8°F26.0°C 49.6°F9.8°C 36% 4.5 mph SE7.2 kmh SE 10.7 mph17.2 kmh 30.07 in1018.3 mb 0.00 in0.0 mm 0.00 in0.0 mm 0.00 in0.0 mm
03:45 PM 74.8°F23.8°C 50.9°F10.5°C 43% 1.6 mph SE2.6 kmh SE 9.8 mph15.8 kmh 30.07 in1018.3 mb 0.00 in0.0 mm 0.00 in0.0 mm 0.00 in0.0 mm
03:30 PM 77.0°F25.0°C 50.2°F10.1°C 39% 1.6 mph SE2.6 kmh SE 8.3 mph13.4 kmh 30.07 in1018.3 mb 0.00 in0.0 mm 0.00 in0.0 mm 0.00 in0.0 mm
03:15 PM 79.5°F26.4°C 51.7°F10.9°C 38% 3.8 mph SSE6.1 kmh SSE 8.3 mph13.4 kmh 30.07 in1018.3 mb 0.00 in0.0 mm 0.00 in0.0 mm 0.00 in0.0 mm
03:00 PM 73.8°F23.2°C 51.1°F10.6°C 45% 3.8 mph S6.1 kmh S 11.4 mph18.3 kmh 30.08 in1018.6 mb 0.00 in0.0 mm 0.00 in0.0 mm 0.00 in0.0 mm
02:45 PM 78.1°F25.6°C 51.1°F10.6°C 39% 6.0 mph SSE9.7 kmh SSE 7.6 mph12.2 kmh 30.08 in1018.6 mb 0.00 in0.0 mm 0.00 in0.0 mm 0.00 in0.0 mm
02:30 PM 75.0°F23.9°C 52.9°F11.6°C 46% 6.9 mph SE11.1 kmh SE 11.4 mph18.3 kmh 30.08 in1018.6 mb 0.00 in0.0 mm 0.00 in0.0 mm 0.00 in0.0 mm
02:15 PM 76.1°F24.5°C 52.0°F11.1°C 43% 2.2 mph SE3.5 kmh SE 13.0 mph20.9 kmh 30.09 in1019.0 mb 0.00 in0.0 mm 0.00 in0.0 mm 0.00 in0.0 mm
02:00 PM 75.6°F24.2°C 52.1°F11.2°C 44% 2.2 mph SE3.5 kmh SE 10.7 mph17.2 kmh 30.09 in1019.0 mb 0.00 in0.0 mm 0.00 in0.0 mm 0.00 in0.0 mm
01:45 PM 75.9°F24.4°C 52.5°F11.4°C 44% 5.4 mph SE8.7 kmh SE 10.7 mph17.2 kmh 30.10 in1019.3 mb 0.00 in0.0 mm 0.00 in0.0 mm 0.00 in0.0 mm
01:30 PM 73.9°F23.3°C 51.9°F11.1°C 46% 6.9 mph SE11.1 kmh SE 10.7 mph17.2 kmh 30.10 in1019.3 mb 0.00 in0.0 mm 0.00 in0.0 mm 0.00 in0.0 mm
01:15 PM 74.5°F23.6°C 52.4°F11.3°C 46% 6.0 mph SE9.7 kmh SE 9.2 mph14.8 kmh 30.10 in1019.3 mb 0.00 in0.0 mm 0.00 in0.0 mm 0.00 in0.0 mm
01:00 PM 74.5°F23.6°C 53.0°F11.7°C 47% 3.8 mph SE6.1 kmh SE 9.2 mph14.8 kmh 30.11 in1019.6 mb 0.00 in0.0 mm 0.00 in0.0 mm 0.00 in0.0 mm
12:45 PM 74.3°F23.5°C 52.8°F11.6°C 47% 2.2 mph SE3.5 kmh SE 11.4 mph18.3 kmh 30.11 in1019.6 mb 0.00 in0.0 mm 0.00 in0.0 mm 0.00 in0.0 mm
12:30 PM 72.0°F22.2°C 52.9°F11.6°C 51% 3.8 mph SE6.1 kmh SE 9.2 mph14.8 kmh 30.11 in1019.6 mb 0.00 in0.0 mm 0.00 in0.0 mm 0.00 in0.0 mm
12:15 PM 70.9°F21.6°C 52.9°F11.6°C 53% 5.4 mph SSE8.7 kmh SSE 9.8 mph15.8 kmh 30.12 in1020.0 mb 0.00 in0.0 mm 0.00 in0.0 mm 0.00 in0.0 mm
12:00 PM 70.2°F21.2°C 52.3°F11.3°C 53% 5.4 mph ESE8.7 kmh ESE 10.7 mph17.2 kmh 30.13 in1020.3 mb 0.00 in0.0 mm 0.00 in0.0 mm 0.00 in0.0 mm
11:45 AM 70.9°F21.6°C 52.9°F11.6°C 53% 6.0 mph SE9.7 kmh SE 10.7 mph17.2 kmh 30.13 in1020.3 mb 0.00 in0.0 mm 0.00 in0.0 mm 0.00 in0.0 mm
11:30 AM 70.7°F21.5°C 53.3°F11.8°C 54% 5.4 mph SE8.7 kmh SE 9.8 mph15.8 kmh 30.13 in1020.3 mb 0.00 in0.0 mm 0.00 in0.0 mm 0.00 in0.0 mm
11:15 AM 70.5°F21.4°C 52.6°F11.4°C 53% 3.8 mph SE6.1 kmh SE 10.7 mph17.2 kmh 30.13 in1020.3 mb 0.00 in0.0 mm 0.00 in0.0 mm 0.00 in0.0 mm
11:00 AM 69.3°F20.7°C 51.9°F11.1°C 54% 7.6 mph SE12.2 kmh SE 13.6 mph21.9 kmh 30.13 in1020.3 mb 0.00 in0.0 mm 0.00 in0.0 mm 0.00 in0.0 mm
10:45 AM 68.9°F20.5°C 52.6°F11.4°C 56% 5.4 mph SSE8.7 kmh SSE 14.5 mph23.3 kmh 30.14 in1020.7 mb 0.00 in0.0 mm 0.00 in0.0 mm 0.00 in0.0 mm
10:30 AM 68.7°F20.4°C 52.4°F11.3°C 56% 7.6 mph SE12.2 kmh SE 13.0 mph20.9 kmh 30.13 in1020.3 mb 0.00 in0.0 mm 0.00 in0.0 mm 0.00 in0.0 mm
10:15 AM 68.4°F20.2°C 52.6°F11.4°C 57% 4.5 mph SE7.2 kmh SE 10.7 mph17.2 kmh 30.13 in1020.3 mb 0.00 in0.0 mm 0.00 in0.0 mm 0.00 in0.0 mm
10:00 AM 67.6°F19.8°C 52.8°F11.6°C 59% 5.4 mph SE8.7 kmh SE 12.1 mph19.5 kmh 30.13 in1020.3 mb 0.00 in0.0 mm 0.00 in0.0 mm 0.00 in0.0 mm
09:45 AM 66.7°F19.3°C 52.4°F11.3°C 60% 8.3 mph SE13.4 kmh SE 11.4 mph18.3 kmh 30.12 in1020.0 mb 0.00 in0.0 mm 0.00 in0.0 mm 0.00 in0.0 mm
09:30 AM 66.4°F19.1°C 52.1°F11.2°C 60% 2.2 mph SE3.5 kmh SE 9.8 mph15.8 kmh 30.12 in1020.0 mb 0.00 in0.0 mm 0.00 in0.0 mm 0.00 in0.0 mm
09:15 AM 65.8°F18.8°C 52.0°F11.1°C 61% 3.8 mph ESE6.1 kmh ESE 8.3 mph13.4 kmh 30.13 in1020.3 mb 0.00 in0.0 mm 0.00 in0.0 mm 0.00 in0.0 mm
09:00 AM 65.7°F18.7°C 52.3°F11.3°C 62% 3.8 mph ESE6.1 kmh ESE 6.0 mph9.7 kmh 30.12 in1020.0 mb 0.00 in0.0 mm 0.00 in0.0 mm 0.00 in0.0 mm
08:45 AM 64.8°F18.2°C 51.9°F11.1°C 63% 2.2 mph SE3.5 kmh SE 7.6 mph12.2 kmh 30.12 in1020.0 mb 0.00 in0.0 mm 0.00 in0.0 mm 0.00 in0.0 mm
08:30 AM 63.7°F17.6°C 50.4°F10.2°C 62% 3.8 mph SE6.1 kmh SE 7.6 mph12.2 kmh 30.12 in1020.0 mb 0.00 in0.0 mm 0.00 in0.0 mm 0.00 in0.0 mm
08:15 AM 62.8°F17.1°C 50.0°F10.0°C 63% 4.5 mph ESE7.2 kmh ESE 7.6 mph12.2 kmh 30.11 in1019.6 mb 0.00 in0.0 mm 0.00 in0.0 mm 0.00 in0.0 mm
08:00 AM 61.2°F16.2°C 49.7°F9.8°C 66% 3.8 mph SE6.1 kmh SE 6.9 mph11.1 kmh 30.10 in1019.3 mb 0.00 in0.0 mm 0.00 in0.0 mm 0.00 in0.0 mm
07:45 AM 60.3°F15.7°C 49.3°F9.6°C 67% 1.6 mph SE2.6 kmh SE 5.4 mph8.7 kmh 30.10 in1019.3 mb 0.00 in0.0 mm 0.00 in0.0 mm 0.00 in0.0 mm
07:30 AM 59.9°F15.5°C 48.9°F9.4°C 67% 3.8 mph SE6.1 kmh SE 7.6 mph12.2 kmh 30.09 in1019.0 mb 0.00 in0.0 mm 0.00 in0.0 mm 0.00 in0.0 mm
07:15 AM 59.7°F15.4°C 49.2°F9.6°C 68% 3.1 mph SE5.0 kmh SE 7.6 mph12.2 kmh 30.08 in1018.6 mb 0.00 in0.0 mm 0.00 in0.0 mm 0.00 in0.0 mm
07:00 AM 59.5°F15.3°C 50.1°F10.1°C 71% 3.8 mph SE6.1 kmh SE 5.4 mph8.7 kmh 30.08 in1018.6 mb 0.00 in0.0 mm 0.00 in0.0 mm 0.00 in0.0 mm
06:45 AM 59.5°F15.3°C 50.1°F10.1°C 71% 1.6 mph SSE2.6 kmh SSE 6.0 mph9.7 kmh 30.07 in1018.3 mb 0.00 in0.0 mm 0.00 in0.0 mm 0.00 in0.0 mm
06:30 AM 59.4°F15.2°C 49.6°F9.8°C 70% 2.2 mph SSE3.5 kmh SSE 5.4 mph8.7 kmh 30.06 in1017.9 mb 0.00 in0.0 mm 0.00 in0.0 mm 0.00 in0.0 mm
06:15 AM 59.4°F15.2°C 49.6°F9.8°C 70% Calm Calm 6.0 mph9.7 kmh 30.06 in1017.9 mb 0.00 in0.0 mm 0.00 in0.0 mm 0.00 in0.0 mm
06:00 AM 59.5°F15.3°C 49.4°F9.7°C 69% 3.8 mph SE6.1 kmh SE 9.2 mph14.8 kmh 30.06 in1017.9 mb 0.00 in0.0 mm 0.00 in0.0 mm 0.00 in0.0 mm
05:45 AM 59.5°F15.3°C 49.0°F9.4°C 68% 3.1 mph SE5.0 kmh SE 9.2 mph14.8 kmh 30.05 in1017.6 mb 0.00 in0.0 mm 0.00 in0.0 mm 0.00 in0.0 mm
05:30 AM 59.7°F15.4°C 48.8°F9.3°C 67% 2.2 mph SE3.5 kmh SE 8.3 mph13.4 kmh 30.04 in1017.3 mb 0.00 in0.0 mm 0.00 in0.0 mm 0.00 in0.0 mm
05:15 AM 59.9°F15.5°C 48.5°F9.2°C 66% 2.2 mph SE3.5 kmh SE 6.9 mph11.1 kmh 30.04 in1017.3 mb 0.00 in0.0 mm 0.00 in0.0 mm 0.00 in0.0 mm
05:00 AM 60.1°F15.6°C 48.7°F9.3°C 66% 1.6 mph S2.6 kmh S 6.0 mph9.7 kmh 30.05 in1017.6 mb 0.00 in0.0 mm 0.00 in0.0 mm 0.00 in0.0 mm
04:45 AM 60.4°F15.8°C 49.0°F9.4°C 66% 3.1 mph SSE5.0 kmh SSE 7.6 mph12.2 kmh 30.04 in1017.3 mb 0.00 in0.0 mm 0.00 in0.0 mm 0.00 in0.0 mm
04:30 AM 60.8°F16.0°C 49.0°F9.4°C 65% 3.8 mph SSE6.1 kmh SSE 6.9 mph11.1 kmh 30.04 in1017.3 mb 0.00 in0.0 mm 0.00 in0.0 mm 0.00 in0.0 mm
04:15 AM 61.0°F16.1°C 48.7°F9.3°C 64% 1.6 mph SE2.6 kmh SE 4.5 mph7.2 kmh 30.04 in1017.3 mb 0.00 in0.0 mm 0.00 in0.0 mm 0.00 in0.0 mm
04:00 AM 61.2°F16.2°C 48.9°F9.4°C 64% 2.2 mph SE3.5 kmh SE 5.4 mph8.7 kmh 30.04 in1017.3 mb 0.00 in0.0 mm 0.00 in0.0 mm 0.00 in0.0 mm
03:45 AM 61.5°F16.4°C 49.7°F9.8°C 65% 2.2 mph SSE3.5 kmh SSE 5.4 mph8.7 kmh 30.04 in1017.3 mb 0.00 in0.0 mm 0.00 in0.0 mm 0.00 in0.0 mm
03:30 AM 61.7°F16.5°C 49.8°F9.9°C 65% 1.6 mph SE2.6 kmh SE 2.2 mph3.5 kmh 30.04 in1017.3 mb 0.00 in0.0 mm 0.00 in0.0 mm 0.00 in0.0 mm
03:15 AM 62.1°F16.7°C 49.3°F9.6°C 63% 0.7 mph SSE1.1 kmh SSE 4.5 mph7.2 kmh 30.04 in1017.3 mb 0.00 in0.0 mm 0.00 in0.0 mm 0.00 in0.0 mm
03:00 AM 62.4°F16.9°C 49.2°F9.6°C 62% 2.2 mph SSE3.5 kmh SSE 6.9 mph11.1 kmh 30.05 in1017.6 mb 0.00 in0.0 mm 0.00 in0.0 mm 0.00 in0.0 mm
02:45 AM 62.6°F17.0°C 49.0°F9.4°C 61% 2.2 mph SE3.5 kmh SE 5.4 mph8.7 kmh 30.05 in1017.6 mb 0.00 in0.0 mm 0.00 in0.0 mm 0.00 in0.0 mm
02:30 AM 63.0°F17.2°C 49.3°F9.6°C 61% 2.2 mph SE3.5 kmh SE 6.9 mph11.1 kmh 30.05 in1017.6 mb 0.00 in0.0 mm 0.00 in0.0 mm 0.00 in0.0 mm
02:15 AM 63.3°F17.4°C 49.7°F9.8°C 61% 4.5 mph SE7.2 kmh SE 7.6 mph12.2 kmh 30.05 in1017.6 mb 0.00 in0.0 mm 0.00 in0.0 mm 0.00 in0.0 mm
02:00 AM 63.1°F17.3°C 49.5°F9.7°C 61% 2.2 mph SE3.5 kmh SE 7.6 mph12.2 kmh 30.05 in1017.6 mb 0.00 in0.0 mm 0.00 in0.0 mm 0.00 in0.0 mm
01:45 AM 63.3°F17.4°C 49.7°F9.8°C 61% 2.2 mph SE3.5 kmh SE 7.6 mph12.2 kmh 30.06 in1017.9 mb 0.00 in0.0 mm 0.00 in0.0 mm 0.00 in0.0 mm
01:30 AM 63.3°F17.4°C 49.2°F9.6°C 60% 6.9 mph SSE11.1 kmh SSE 8.3 mph13.4 kmh 30.06 in1017.9 mb 0.00 in0.0 mm 0.00 in0.0 mm 0.00 in0.0 mm
01:15 AM 63.3°F17.4°C 48.8°F9.3°C 59% 4.5 mph SE7.2 kmh SE 9.2 mph14.8 kmh 30.05 in1017.6 mb 0.00 in0.0 mm 0.00 in0.0 mm 0.00 in0.0 mm
01:00 AM 63.3°F17.4°C 48.8°F9.3°C 59% 2.2 mph SE3.5 kmh SE 7.6 mph12.2 kmh 30.06 in1017.9 mb 0.00 in0.0 mm 0.00 in0.0 mm 0.00 in0.0 mm
12:45 AM 63.5°F17.5°C 48.9°F9.4°C 59% 3.1 mph SE5.0 kmh SE 7.6 mph12.2 kmh 30.06 in1017.9 mb 0.00 in0.0 mm 0.00 in0.0 mm 0.00 in0.0 mm
12:30 AM 63.7°F17.6°C 49.6°F9.8°C 60% 5.4 mph SE8.7 kmh SE 8.3 mph13.4 kmh 30.06 in1017.9 mb 0.00 in0.0 mm 0.00 in0.0 mm 0.00 in0.0 mm
12:15 AM 63.7°F17.6°C 50.0°F10.0°C 61% 3.8 mph SE6.1 kmh SE 6.0 mph9.7 kmh 30.06 in1017.9 mb 0.00 in0.0 mm 0.00 in0.0 mm 0.00 in0.0 mm
12:00 AM 63.7°F17.6°C 50.4°F10.2°C 62% 3.8 mph SSE6.1 kmh SSE 6.0 mph9.7 kmh 30.06 in1017.9 mb 0.00 in0.0 mm 0.00 in0.0 mm 0.00 in0.0 mm